sensor_id;sensor_type;location;lat;lon;timestamp;P1;durP1;ratioP1;P2;durP2;ratioP2
11082;SDS011;5595;50.186;8.468;2023-08-01T00:00:01;0.38;;;0.20;;
11082;SDS011;5595;50.186;8.468;2023-08-01T00:02:30;0.22;;;0.22;;
11082;SDS011;5595;50.186;8.468;2023-08-01T00:04:57;0.30;;;0.20;;
11082;SDS011;5595;50.186;8.468;2023-08-01T00:07:24;0.20;;;0.20;;
11082;SDS011;5595;50.186;8.468;2023-08-01T00:31:28;0.80;;;0.20;;
11082;SDS011;5595;50.186;8.468;2023-08-01T00:33:55;0.20;;;0.20;;
11082;SDS011;5595;50.186;8.468;2023-08-01T00:36:22;0.57;;;0.20;;
11082;SDS011;5595;50.186;8.468;2023-08-01T00:38:49;0.68;;;0.30;;
11082;SDS011;5595;50.186;8.468;2023-08-01T00:41:16;0.30;;;0.30;;
11082;SDS011;5595;50.186;8.468;2023-08-01T00:43:43;0.30;;;0.30;;
11082;SDS011;5595;50.186;8.468;2023-08-01T00:46:10;0.30;;;0.30;;
11082;SDS011;5595;50.186;8.468;2023-08-01T00:48:38;0.28;;;0.28;;
11082;SDS011;5595;50.186;8.468;2023-08-01T00:51:05;0.50;;;0.40;;
11082;SDS011;5595;50.186;8.468;2023-08-01T00:53:34;0.25;;;0.25;;
11082;SDS011;5595;50.186;8.468;2023-08-01T01:03:01;0.60;;;0.40;;
11082;SDS011;5595;50.186;8.468;2023-08-01T01:05:34;0.10;;;0.10;;
11082;SDS011;5595;50.186;8.468;2023-08-01T01:08:07;0.20;;;0.20;;
11082;SDS011;5595;50.186;8.468;2023-08-01T01:10:34;0.75;;;0.50;;
11082;SDS011;5595;50.186;8.468;2023-08-01T01:13:01;0.38;;;0.30;;
11082;SDS011;5595;50.186;8.468;2023-08-01T01:15:31;0.40;;;0.28;;
11082;SDS011;5595;50.186;8.468;2023-08-01T01:18:00;0.20;;;0.20;;
11082;SDS011;5595;50.186;8.468;2023-08-01T01:20:31;0.40;;;0.35;;
11082;SDS011;5595;50.186;8.468;2023-08-01T01:23:03;0.32;;;0.30;;
11082;SDS011;5595;50.186;8.468;2023-08-01T01:25:31;1.10;;;0.20;;
11082;SDS011;5595;50.186;8.468;2023-08-01T01:27:59;0.20;;;0.20;;
11082;SDS011;5595;50.186;8.468;2023-08-01T01:30:27;0.17;;;0.17;;
11082;SDS011;5595;50.186;8.468;2023-08-01T01:32:55;0.50;;;0.30;;
11082;SDS011;5595;50.186;8.468;2023-08-01T01:35:24;0.60;;;0.30;;
11082;SDS011;5595;50.186;8.468;2023-08-01T01:37:52;0.63;;;0.60;;
11082;SDS011;5595;50.186;8.468;2023-08-01T01:40:20;0.45;;;0.45;;
11082;SDS011;5595;50.186;8.468;2023-08-01T01:42:47;0.90;;;0.40;;
11082;SDS011;5595;50.186;8.468;2023-08-01T01:45:16;1.13;;;0.65;;
11082;SDS011;5595;50.186;8.468;2023-08-01T01:47:46;1.75;;;0.65;;
11082;SDS011;5595;50.186;8.468;2023-08-01T01:50:15;1.20;;;0.98;;
11082;SDS011;5595;50.186;8.468;2023-08-01T01:52:43;0.70;;;0.70;;
11082;SDS011;5595;50.186;8.468;2023-08-01T01:55:15;1.23;;;0.90;;
11082;SDS011;5595;50.186;8.468;2023-08-01T01:57:42;1.42;;;0.98;;
11082;SDS011;5595;50.186;8.468;2023-08-01T02:00:12;0.98;;;0.98;;
11082;SDS011;5595;50.186;8.468;2023-08-01T02:02:39;1.45;;;1.00;;
11082;SDS011;5595;50.186;8.468;2023-08-01T02:05:06;1.55;;;0.90;;
11082;SDS011;5595;50.186;8.468;2023-08-01T02:07:34;2.47;;;0.80;;
11082;SDS011;5595;50.186;8.468;2023-08-01T02:10:02;0.98;;;0.82;;
11082;SDS011;5595;50.186;8.468;2023-08-01T02:12:31;0.95;;;0.90;;
11082;SDS011;5595;50.186;8.468;2023-08-01T02:15:00;1.38;;;0.93;;
11082;SDS011;5595;50.186;8.468;2023-08-01T02:17:30;1.60;;;0.90;;
11082;SDS011;5595;50.186;8.468;2023-08-01T02:20:00;1.15;;;1.05;;
11082;SDS011;5595;50.186;8.468;2023-08-01T02:22:29;1.30;;;1.02;;
11082;SDS011;5595;50.186;8.468;2023-08-01T02:24:57;1.25;;;0.93;;
11082;SDS011;5595;50.186;8.468;2023-08-01T02:27:28;1.42;;;0.82;;
11082;SDS011;5595;50.186;8.468;2023-08-01T02:29:56;1.55;;;0.85;;
11082;SDS011;5595;50.186;8.468;2023-08-01T02:32:27;1.15;;;1.00;;
11082;SDS011;5595;50.186;8.468;2023-08-01T02:34:57;1.88;;;1.02;;
11082;SDS011;5595;50.186;8.468;2023-08-01T02:37:25;1.50;;;0.90;;
11082;SDS011;5595;50.186;8.468;2023-08-01T02:39:51;1.10;;;0.60;;
11082;SDS011;5595;50.186;8.468;2023-08-01T02:42:18;0.77;;;0.68;;
11082;SDS011;5595;50.186;8.468;2023-08-01T02:44:45;2.15;;;1.15;;
11082;SDS011;5595;50.186;8.468;2023-08-01T02:47:13;3.30;;;0.85;;
11082;SDS011;5595;50.186;8.468;2023-08-01T02:49:40;1.67;;;0.88;;
11082;SDS011;5595;50.186;8.468;2023-08-01T02:52:06;1.17;;;0.40;;
11082;SDS011;5595;50.186;8.468;2023-08-01T02:54:35;0.40;;;0.40;;
11082;SDS011;5595;50.186;8.468;2023-08-01T02:57:02;0.47;;;0.40;;
11082;SDS011;5595;50.186;8.468;2023-08-01T02:59:29;0.52;;;0.52;;
11082;SDS011;5595;50.186;8.468;2023-08-01T03:01:58;0.70;;;0.60;;
11082;SDS011;5595;50.186;8.468;2023-08-01T03:04:28;0.40;;;0.40;;
11082;SDS011;5595;50.186;8.468;2023-08-01T03:07:09;0.63;;;0.30;;
11082;SDS011;5595;50.186;8.468;2023-08-01T03:41:07;0.52;;;0.50;;
11082;SDS011;5595;50.186;8.468;2023-08-01T03:43:43;0.63;;;0.63;;
11082;SDS011;5595;50.186;8.468;2023-08-01T04:19:19;1.63;;;0.70;;
11082;SDS011;5595;50.186;8.468;2023-08-01T04:21:48;0.95;;;0.55;;
11082;SDS011;5595;50.186;8.468;2023-08-01T04:24:22;0.82;;;0.50;;
11082;SDS011;5595;50.186;8.468;2023-08-01T04:26:52;0.60;;;0.40;;
11082;SDS011;5595;50.186;8.468;2023-08-01T04:29:22;0.57;;;0.55;;
11082;SDS011;5595;50.186;8.468;2023-08-01T04:31:49;0.35;;;0.35;;
11082;SDS011;5595;50.186;8.468;2023-08-01T04:34:21;0.50;;;0.50;;
11082;SDS011;5595;50.186;8.468;2023-08-01T04:36:48;0.30;;;0.30;;
11082;SDS011;5595;50.186;8.468;2023-08-01T04:39:15;1.05;;;0.40;;
11082;SDS011;5595;50.186;8.468;2023-08-01T04:41:50;0.82;;;0.43;;
11082;SDS011;5595;50.186;8.468;2023-08-01T04:44:23;0.30;;;0.30;;
11082;SDS011;5595;50.186;8.468;2023-08-01T04:46:53;0.43;;;0.30;;
11082;SDS011;5595;50.186;8.468;2023-08-01T04:49:21;0.20;;;0.20;;
11082;SDS011;5595;50.186;8.468;2023-08-01T04:51:51;0.20;;;0.20;;
11082;SDS011;5595;50.186;8.468;2023-08-01T04:54:20;0.73;;;0.30;;
11082;SDS011;5595;50.186;8.468;2023-08-01T04:56:47;0.35;;;0.13;;
11082;SDS011;5595;50.186;8.468;2023-08-01T04:59:14;0.10;;;0.10;;
11082;SDS011;5595;50.186;8.468;2023-08-01T05:01:41;0.32;;;0.20;;
11082;SDS011;5595;50.186;8.468;2023-08-01T05:04:09;0.10;;;0.10;;
11082;SDS011;5595;50.186;8.468;2023-08-01T05:06:37;0.10;;;0.10;;
11082;SDS011;5595;50.186;8.468;2023-08-01T05:09:06;0.10;;;0.10;;
11082;SDS011;5595;50.186;8.468;2023-08-01T05:11:33;0.28;;;0.10;;
11082;SDS011;5595;50.186;8.468;2023-08-01T05:14:00;0.47;;;0.25;;
11082;SDS011;5595;50.186;8.468;2023-08-01T05:16:27;0.28;;;0.13;;
11082;SDS011;5595;50.186;8.468;2023-08-01T05:18:54;0.30;;;0.30;;
11082;SDS011;5595;50.186;8.468;2023-08-01T05:21:20;0.30;;;0.30;;
11082;SDS011;5595;50.186;8.468;2023-08-01T05:23:49;0.45;;;0.30;;
11082;SDS011;5595;50.186;8.468;2023-08-01T05:26:15;0.30;;;0.30;;
11082;SDS011;5595;50.186;8.468;2023-08-01T05:28:42;0.30;;;0.30;;
11082;SDS011;5595;50.186;8.468;2023-08-01T05:31:09;0.90;;;0.43;;
11082;SDS011;5595;50.186;8.468;2023-08-01T05:33:36;0.40;;;0.40;;
11082;SDS011;5595;50.186;8.468;2023-08-01T05:36:03;0.82;;;0.40;;
11082;SDS011;5595;50.186;8.468;2023-08-01T05:38:30;0.20;;;0.20;;
11082;SDS011;5595;50.186;8.468;2023-08-01T05:40:58;1.35;;;0.28;;
11082;SDS011;5595;50.186;8.468;2023-08-01T05:43:25;0.57;;;0.30;;
11082;SDS011;5595;50.186;8.468;2023-08-01T05:45:52;0.32;;;0.13;;
11082;SDS011;5595;50.186;8.468;2023-08-01T05:48:18;0.40;;;0.30;;
11082;SDS011;5595;50.186;8.468;2023-08-01T05:50:46;0.10;;;0.10;;
11082;SDS011;5595;50.186;8.468;2023-08-01T05:53:13;0.10;;;0.10;;
11082;SDS011;5595;50.186;8.468;2023-08-01T05:55:40;0.30;;;0.10;;
11082;SDS011;5595;50.186;8.468;2023-08-01T05:58:08;0.13;;;0.13;;
11082;SDS011;5595;50.186;8.468;2023-08-01T06:00:34;0.68;;;0.20;;
11082;SDS011;5595;50.186;8.468;2023-08-01T06:03:01;0.00;;;0.00;;
11082;SDS011;5595;50.186;8.468;2023-08-01T06:05:28;0.03;;;0.00;;
11082;SDS011;5595;50.186;8.468;2023-08-01T06:07:55;0.00;;;0.00;;
11082;SDS011;5595;50.186;8.468;2023-08-01T06:10:22;0.00;;;0.00;;
11082;SDS011;5595;50.186;8.468;2023-08-01T06:12:48;0.00;;;0.00;;
11082;SDS011;5595;50.186;8.468;2023-08-01T06:15:19;0.25;;;0.00;;
11082;SDS011;5595;50.186;8.468;2023-08-01T06:17:47;0.77;;;0.10;;
11082;SDS011;5595;50.186;8.468;2023-08-01T06:20:14;0.95;;;0.10;;
11082;SDS011;5595;50.186;8.468;2023-08-01T06:22:41;0.10;;;0.10;;
11082;SDS011;5595;50.186;8.468;2023-08-01T06:25:08;0.10;;;0.10;;
11082;SDS011;5595;50.186;8.468;2023-08-01T06:27:35;0.00;;;0.00;;
11082;SDS011;5595;50.186;8.468;2023-08-01T06:30:02;0.10;;;0.10;;
11082;SDS011;5595;50.186;8.468;2023-08-01T06:32:32;0.10;;;0.10;;
11082;SDS011;5595;50.186;8.468;2023-08-01T06:34:59;0.30;;;0.20;;
11082;SDS011;5595;50.186;8.468;2023-08-01T06:37:26;0.63;;;0.20;;
11082;SDS011;5595;50.186;8.468;2023-08-01T06:39:53;0.30;;;0.30;;
11082;SDS011;5595;50.186;8.468;2023-08-01T06:42:20;0.30;;;0.30;;
11082;SDS011;5595;50.186;8.468;2023-08-01T06:44:47;0.65;;;0.50;;
11082;SDS011;5595;50.186;8.468;2023-08-01T06:47:16;0.63;;;0.40;;
11082;SDS011;5595;50.186;8.468;2023-08-01T06:49:47;0.38;;;0.30;;
11082;SDS011;5595;50.186;8.468;2023-08-01T06:52:13;1.23;;;0.50;;
11082;SDS011;5595;50.186;8.468;2023-08-01T06:54:40;0.28;;;0.28;;
11082;SDS011;5595;50.186;8.468;2023-08-01T06:57:07;0.50;;;0.30;;
11082;SDS011;5595;50.186;8.468;2023-08-01T06:59:34;0.32;;;0.30;;
11082;SDS011;5595;50.186;8.468;2023-08-01T07:02:01;0.17;;;0.17;;
11082;SDS011;5595;50.186;8.468;2023-08-01T07:04:28;0.70;;;0.35;;
11082;SDS011;5595;50.186;8.468;2023-08-01T07:06:56;0.63;;;0.50;;
11082;SDS011;5595;50.186;8.468;2023-08-01T07:09:23;0.47;;;0.35;;
11082;SDS011;5595;50.186;8.468;2023-08-01T07:11:50;0.20;;;0.20;;
11082;SDS011;5595;50.186;8.468;2023-08-01T07:14:16;1.23;;;0.40;;
11082;SDS011;5595;50.186;8.468;2023-08-01T07:16:43;0.70;;;0.35;;
11082;SDS011;5595;50.186;8.468;2023-08-01T07:19:10;0.88;;;0.28;;
11082;SDS011;5595;50.186;8.468;2023-08-01T07:21:37;0.75;;;0.45;;
11082;SDS011;5595;50.186;8.468;2023-08-01T07:24:05;0.22;;;0.20;;
11082;SDS011;5595;50.186;8.468;2023-08-01T07:26:32;0.40;;;0.40;;
11082;SDS011;5595;50.186;8.468;2023-08-01T07:28:59;0.30;;;0.30;;
11082;SDS011;5595;50.186;8.468;2023-08-01T07:31:25;1.48;;;0.20;;
11082;SDS011;5595;50.186;8.468;2023-08-01T07:33:52;0.85;;;0.38;;
11082;SDS011;5595;50.186;8.468;2023-08-01T07:36:19;0.28;;;0.28;;
11082;SDS011;5595;50.186;8.468;2023-08-01T07:38:46;0.32;;;0.20;;
11082;SDS011;5595;50.186;8.468;2023-08-01T07:41:14;0.20;;;0.20;;
11082;SDS011;5595;50.186;8.468;2023-08-01T07:43:41;0.40;;;0.30;;
11082;SDS011;5595;50.186;8.468;2023-08-01T07:46:08;0.47;;;0.40;;
11082;SDS011;5595;50.186;8.468;2023-08-01T07:48:36;0.47;;;0.40;;
11082;SDS011;5595;50.186;8.468;2023-08-01T07:51:04;0.40;;;0.40;;
11082;SDS011;5595;50.186;8.468;2023-08-01T07:53:32;0.30;;;0.30;;
11082;SDS011;5595;50.186;8.468;2023-08-01T07:55:59;1.02;;;0.40;;
11082;SDS011;5595;50.186;8.468;2023-08-01T07:58:29;0.30;;;0.30;;
11082;SDS011;5595;50.186;8.468;2023-08-01T08:00:56;0.68;;;0.43;;
11082;SDS011;5595;50.186;8.468;2023-08-01T08:03:23;0.30;;;0.30;;
11082;SDS011;5595;50.186;8.468;2023-08-01T08:05:50;1.27;;;0.50;;
11082;SDS011;5595;50.186;8.468;2023-08-01T08:08:17;0.82;;;0.40;;
11082;SDS011;5595;50.186;8.468;2023-08-01T08:10:43;0.40;;;0.40;;
11082;SDS011;5595;50.186;8.468;2023-08-01T08:13:10;0.65;;;0.40;;
11082;SDS011;5595;50.186;8.468;2023-08-01T08:15:38;0.77;;;0.30;;
11082;SDS011;5595;50.186;8.468;2023-08-01T08:18:05;0.47;;;0.30;;
11082;SDS011;5595;50.186;8.468;2023-08-01T08:20:34;2.25;;;0.38;;
11082;SDS011;5595;50.186;8.468;2023-08-01T08:23:07;0.63;;;0.45;;
11082;SDS011;5595;50.186;8.468;2023-08-01T08:25:34;1.08;;;0.25;;
11082;SDS011;5595;50.186;8.468;2023-08-01T08:28:01;0.73;;;0.40;;
11082;SDS011;5595;50.186;8.468;2023-08-01T08:30:28;0.68;;;0.30;;
11082;SDS011;5595;50.186;8.468;2023-08-01T08:32:57;0.73;;;0.40;;
11082;SDS011;5595;50.186;8.468;2023-08-01T08:35:25;1.25;;;0.43;;
11082;SDS011;5595;50.186;8.468;2023-08-01T08:37:52;2.33;;;0.63;;
11082;SDS011;5595;50.186;8.468;2023-08-01T08:40:19;1.75;;;0.38;;
11082;SDS011;5595;50.186;8.468;2023-08-01T08:42:46;0.50;;;0.40;;
11082;SDS011;5595;50.186;8.468;2023-08-01T08:45:14;1.08;;;0.40;;
11082;SDS011;5595;50.186;8.468;2023-08-01T08:47:44;0.63;;;0.30;;
11082;SDS011;5595;50.186;8.468;2023-08-01T08:50:16;0.52;;;0.52;;
11082;SDS011;5595;50.186;8.468;2023-08-01T08:52:46;0.57;;;0.38;;
11082;SDS011;5595;50.186;8.468;2023-08-01T08:55:13;0.43;;;0.43;;
11082;SDS011;5595;50.186;8.468;2023-08-01T08:57:40;0.30;;;0.30;;
11082;SDS011;5595;50.186;8.468;2023-08-01T09:00:10;0.32;;;0.32;;
11082;SDS011;5595;50.186;8.468;2023-08-01T09:02:37;0.30;;;0.30;;
11082;SDS011;5595;50.186;8.468;2023-08-01T09:05:04;0.80;;;0.30;;
11082;SDS011;5595;50.186;8.468;2023-08-01T09:07:33;1.30;;;0.70;;
11082;SDS011;5595;50.186;8.468;2023-08-01T09:10:05;2.47;;;0.30;;
11082;SDS011;5595;50.186;8.468;2023-08-01T09:12:33;0.40;;;0.30;;
11082;SDS011;5595;50.186;8.468;2023-08-01T09:15:00;1.45;;;0.40;;
11082;SDS011;5595;50.186;8.468;2023-08-01T09:17:27;0.30;;;0.30;;
11082;SDS011;5595;50.186;8.468;2023-08-01T09:19:55;1.55;;;0.50;;
11082;SDS011;5595;50.186;8.468;2023-08-01T09:22:22;0.40;;;0.30;;
11082;SDS011;5595;50.186;8.468;2023-08-01T09:24:53;0.40;;;0.40;;
11082;SDS011;5595;50.186;8.468;2023-08-01T09:27:20;0.60;;;0.60;;
11082;SDS011;5595;50.186;8.468;2023-08-01T09:29:48;0.30;;;0.30;;
11082;SDS011;5595;50.186;8.468;2023-08-01T09:32:15;0.57;;;0.30;;
11082;SDS011;5595;50.186;8.468;2023-08-01T09:34:42;0.30;;;0.30;;
11082;SDS011;5595;50.186;8.468;2023-08-01T09:37:09;0.40;;;0.40;;
11082;SDS011;5595;50.186;8.468;2023-08-01T09:39:36;0.30;;;0.30;;
11082;SDS011;5595;50.186;8.468;2023-08-01T09:42:07;0.47;;;0.32;;
11082;SDS011;5595;50.186;8.468;2023-08-01T09:44:34;0.47;;;0.40;;
11082;SDS011;5595;50.186;8.468;2023-08-01T09:47:02;0.30;;;0.30;;
11082;SDS011;5595;50.186;8.468;2023-08-01T09:49:31;0.32;;;0.30;;
11082;SDS011;5595;50.186;8.468;2023-08-01T09:51:58;0.20;;;0.20;;
11082;SDS011;5595;50.186;8.468;2023-08-01T09:54:26;0.45;;;0.30;;
11082;SDS011;5595;50.186;8.468;2023-08-01T09:56:53;0.38;;;0.38;;
11082;SDS011;5595;50.186;8.468;2023-08-01T09:59:23;0.35;;;0.35;;
11082;SDS011;5595;50.186;8.468;2023-08-01T10:01:51;0.30;;;0.30;;
11082;SDS011;5595;50.186;8.468;2023-08-01T10:04:20;1.15;;;0.30;;
11082;SDS011;5595;50.186;8.468;2023-08-01T10:06:49;0.45;;;0.30;;
11082;SDS011;5595;50.186;8.468;2023-08-01T10:09:21;0.28;;;0.28;;
11082;SDS011;5595;50.186;8.468;2023-08-01T10:11:48;0.38;;;0.30;;
11082;SDS011;5595;50.186;8.468;2023-08-01T10:14:18;0.55;;;0.45;;
11082;SDS011;5595;50.186;8.468;2023-08-01T10:16:47;2.38;;;0.30;;
11082;SDS011;5595;50.186;8.468;2023-08-01T10:19:15;0.57;;;0.52;;
11082;SDS011;5595;50.186;8.468;2023-08-01T10:21:43;0.70;;;0.25;;
11082;SDS011;5595;50.186;8.468;2023-08-01T10:24:11;0.57;;;0.57;;
11082;SDS011;5595;50.186;8.468;2023-08-01T10:26:38;0.65;;;0.40;;
11082;SDS011;5595;50.186;8.468;2023-08-01T10:29:05;0.60;;;0.40;;
11082;SDS011;5595;50.186;8.468;2023-08-01T10:31:32;0.70;;;0.30;;
11082;SDS011;5595;50.186;8.468;2023-08-01T10:34:11;0.55;;;0.47;;
11082;SDS011;5595;50.186;8.468;2023-08-01T10:36:39;0.22;;;0.20;;
11082;SDS011;5595;50.186;8.468;2023-08-01T10:39:06;0.28;;;0.28;;
11082;SDS011;5595;50.186;8.468;2023-08-01T10:41:33;0.40;;;0.38;;
11082;SDS011;5595;50.186;8.468;2023-08-01T10:44:08;0.82;;;0.40;;
11082;SDS011;5595;50.186;8.468;2023-08-01T10:46:45;0.50;;;0.20;;
11082;SDS011;5595;50.186;8.468;2023-08-01T10:49:14;0.65;;;0.20;;
11082;SDS011;5595;50.186;8.468;2023-08-01T10:51:41;0.30;;;0.30;;
11082;SDS011;5595;50.186;8.468;2023-08-01T10:54:17;0.38;;;0.35;;
11082;SDS011;5595;50.186;8.468;2023-08-01T10:56:45;1.48;;;0.38;;
11082;SDS011;5595;50.186;8.468;2023-08-01T10:59:13;1.02;;;0.38;;
11082;SDS011;5595;50.186;8.468;2023-08-01T11:01:44;1.10;;;0.30;;
11082;SDS011;5595;50.186;8.468;2023-08-01T11:04:16;0.50;;;0.30;;
11082;SDS011;5595;50.186;8.468;2023-08-01T11:06:44;0.77;;;0.30;;
11082;SDS011;5595;50.186;8.468;2023-08-01T11:09:15;0.57;;;0.47;;
11082;SDS011;5595;50.186;8.468;2023-08-01T11:11:43;0.20;;;0.20;;
11082;SDS011;5595;50.186;8.468;2023-08-01T11:14:11;0.55;;;0.25;;
11082;SDS011;5595;50.186;8.468;2023-08-01T11:16:38;0.70;;;0.38;;
11082;SDS011;5595;50.186;8.468;2023-08-01T11:19:06;0.77;;;0.50;;
11082;SDS011;5595;50.186;8.468;2023-08-01T11:21:44;0.30;;;0.30;;
11082;SDS011;5595;50.186;8.468;2023-08-01T11:24:11;0.45;;;0.40;;
11082;SDS011;5595;50.186;8.468;2023-08-01T11:26:40;1.52;;;0.40;;
11082;SDS011;5595;50.186;8.468;2023-08-01T11:29:07;0.90;;;0.50;;
11082;SDS011;5595;50.186;8.468;2023-08-01T11:31:35;1.48;;;0.30;;
11082;SDS011;5595;50.186;8.468;2023-08-01T11:34:02;0.82;;;0.43;;
11082;SDS011;5595;50.186;8.468;2023-08-01T11:36:29;1.88;;;0.40;;
11082;SDS011;5595;50.186;8.468;2023-08-01T11:38:57;0.30;;;0.30;;
11082;SDS011;5595;50.186;8.468;2023-08-01T11:41:25;0.40;;;0.40;;
11082;SDS011;5595;50.186;8.468;2023-08-01T11:43:53;0.55;;;0.40;;
11082;SDS011;5595;50.186;8.468;2023-08-01T11:46:20;0.30;;;0.30;;
11082;SDS011;5595;50.186;8.468;2023-08-01T11:48:48;0.40;;;0.30;;
11082;SDS011;5595;50.186;8.468;2023-08-01T11:51:15;2.60;;;0.25;;
11082;SDS011;5595;50.186;8.468;2023-08-01T11:53:42;0.30;;;0.30;;
11082;SDS011;5595;50.186;8.468;2023-08-01T11:56:20;0.40;;;0.35;;
11082;SDS011;5595;50.186;8.468;2023-08-01T11:58:47;1.17;;;0.40;;
11082;SDS011;5595;50.186;8.468;2023-08-01T12:04:39;0.30;;;0.30;;
11082;SDS011;5595;50.186;8.468;2023-08-01T12:07:12;0.30;;;0.30;;
11082;SDS011;5595;50.186;8.468;2023-08-01T12:09:39;0.63;;;0.40;;
11082;SDS011;5595;50.186;8.468;2023-08-01T12:12:08;0.32;;;0.30;;
11082;SDS011;5595;50.186;8.468;2023-08-01T12:14:39;1.42;;;0.40;;
11082;SDS011;5595;50.186;8.468;2023-08-01T12:17:06;0.20;;;0.20;;
11082;SDS011;5595;50.186;8.468;2023-08-01T12:19:34;0.32;;;0.32;;
11082;SDS011;5595;50.186;8.468;2023-08-01T12:22:01;0.82;;;0.43;;
11082;SDS011;5595;50.186;8.468;2023-08-01T12:24:27;1.20;;;0.50;;
11082;SDS011;5595;50.186;8.468;2023-08-01T12:26:54;0.50;;;0.30;;
11082;SDS011;5595;50.186;8.468;2023-08-01T12:29:22;0.75;;;0.45;;
11082;SDS011;5595;50.186;8.468;2023-08-01T12:31:49;0.43;;;0.38;;
11082;SDS011;5595;50.186;8.468;2023-08-01T12:34:16;0.82;;;0.50;;
11082;SDS011;5595;50.186;8.468;2023-08-01T12:36:43;0.68;;;0.43;;
11082;SDS011;5595;50.186;8.468;2023-08-01T12:39:10;0.20;;;0.20;;
11082;SDS011;5595;50.186;8.468;2023-08-01T12:41:37;0.57;;;0.30;;
11082;SDS011;5595;50.186;8.468;2023-08-01T12:44:06;0.80;;;0.40;;
11082;SDS011;5595;50.186;8.468;2023-08-01T12:46:34;0.73;;;0.28;;
11082;SDS011;5595;50.186;8.468;2023-08-01T12:49:01;1.42;;;0.43;;
11082;SDS011;5595;50.186;8.468;2023-08-01T12:51:28;0.30;;;0.30;;
11082;SDS011;5595;50.186;8.468;2023-08-01T12:53:54;0.60;;;0.30;;
11082;SDS011;5595;50.186;8.468;2023-08-01T12:56:21;0.80;;;0.43;;
11082;SDS011;5595;50.186;8.468;2023-08-01T12:58:48;0.28;;;0.28;;
11082;SDS011;5595;50.186;8.468;2023-08-01T13:01:15;0.52;;;0.32;;
11082;SDS011;5595;50.186;8.468;2023-08-01T13:03:43;0.65;;;0.30;;
11082;SDS011;5595;50.186;8.468;2023-08-01T13:06:10;0.30;;;0.30;;
11082;SDS011;5595;50.186;8.468;2023-08-01T13:08:38;0.13;;;0.13;;
11082;SDS011;5595;50.186;8.468;2023-08-01T13:11:09;1.10;;;0.50;;
11082;SDS011;5595;50.186;8.468;2023-08-01T13:13:37;1.10;;;0.30;;
11082;SDS011;5595;50.186;8.468;2023-08-01T13:16:07;0.32;;;0.32;;
11082;SDS011;5595;50.186;8.468;2023-08-01T13:18:34;0.43;;;0.30;;
11082;SDS011;5595;50.186;8.468;2023-08-01T13:21:03;0.50;;;0.30;;
11082;SDS011;5595;50.186;8.468;2023-08-01T13:23:30;1.42;;;0.40;;
11082;SDS011;5595;50.186;8.468;2023-08-01T13:25:57;0.38;;;0.32;;
11082;SDS011;5595;50.186;8.468;2023-08-01T13:28:27;3.50;;;0.50;;
11082;SDS011;5595;50.186;8.468;2023-08-01T13:30:53;0.65;;;0.40;;
11082;SDS011;5595;50.186;8.468;2023-08-01T13:33:20;0.30;;;0.28;;
11082;SDS011;5595;50.186;8.468;2023-08-01T13:35:47;0.70;;;0.50;;
11082;SDS011;5595;50.186;8.468;2023-08-01T13:38:19;1.55;;;0.70;;
11082;SDS011;5595;50.186;8.468;2023-08-01T13:40:45;1.98;;;0.50;;
11082;SDS011;5595;50.186;8.468;2023-08-01T13:43:12;0.50;;;0.40;;
11082;SDS011;5595;50.186;8.468;2023-08-01T13:45:39;2.47;;;0.73;;
11082;SDS011;5595;50.186;8.468;2023-08-01T13:48:06;2.05;;;0.77;;
11082;SDS011;5595;50.186;8.468;2023-08-01T13:50:33;0.73;;;0.47;;
11082;SDS011;5595;50.186;8.468;2023-08-01T13:52:59;1.02;;;0.63;;
11082;SDS011;5595;50.186;8.468;2023-08-01T13:55:27;1.10;;;0.60;;
11082;SDS011;5595;50.186;8.468;2023-08-01T13:57:54;0.50;;;0.50;;
11082;SDS011;5595;50.186;8.468;2023-08-01T14:00:21;1.52;;;0.60;;
11082;SDS011;5595;50.186;8.468;2023-08-01T14:02:49;1.05;;;0.57;;
11082;SDS011;5595;50.186;8.468;2023-08-01T14:05:16;2.13;;;0.45;;
11082;SDS011;5595;50.186;8.468;2023-08-01T14:07:43;0.93;;;0.40;;
11082;SDS011;5595;50.186;8.468;2023-08-01T14:10:10;1.25;;;0.68;;
11082;SDS011;5595;50.186;8.468;2023-08-01T14:12:41;2.60;;;0.70;;
11082;SDS011;5595;50.186;8.468;2023-08-01T14:15:08;2.83;;;0.45;;
11082;SDS011;5595;50.186;8.468;2023-08-01T14:17:35;1.50;;;0.47;;
11082;SDS011;5595;50.186;8.468;2023-08-01T14:20:02;0.30;;;0.30;;
11082;SDS011;5595;50.186;8.468;2023-08-01T14:22:30;0.77;;;0.50;;
11082;SDS011;5595;50.186;8.468;2023-08-01T14:24:57;0.68;;;0.40;;
11082;SDS011;5595;50.186;8.468;2023-08-01T14:27:24;0.70;;;0.45;;
11082;SDS011;5595;50.186;8.468;2023-08-01T14:29:52;1.27;;;0.45;;
11082;SDS011;5595;50.186;8.468;2023-08-01T14:32:19;0.40;;;0.40;;
11082;SDS011;5595;50.186;8.468;2023-08-01T14:34:46;0.80;;;0.30;;
11082;SDS011;5595;50.186;8.468;2023-08-01T14:37:13;1.20;;;0.40;;
11082;SDS011;5595;50.186;8.468;2023-08-01T14:39:40;1.88;;;0.70;;
11082;SDS011;5595;50.186;8.468;2023-08-01T14:42:06;0.63;;;0.60;;
11082;SDS011;5595;50.186;8.468;2023-08-01T14:44:33;0.57;;;0.38;;
11082;SDS011;5595;50.186;8.468;2023-08-01T14:47:01;0.52;;;0.47;;
11082;SDS011;5595;50.186;8.468;2023-08-01T14:49:28;0.43;;;0.38;;
11082;SDS011;5595;50.186;8.468;2023-08-01T14:51:55;0.57;;;0.40;;
11082;SDS011;5595;50.186;8.468;2023-08-01T14:54:22;0.40;;;0.40;;
11082;SDS011;5595;50.186;8.468;2023-08-01T14:56:50;0.60;;;0.30;;
11082;SDS011;5595;50.186;8.468;2023-08-01T14:59:17;0.85;;;0.25;;
11082;SDS011;5595;50.186;8.468;2023-08-01T15:01:43;2.20;;;0.30;;
11082;SDS011;5595;50.186;8.468;2023-08-01T15:04:12;0.77;;;0.40;;
11082;SDS011;5595;50.186;8.468;2023-08-01T15:06:39;1.88;;;0.40;;
11082;SDS011;5595;50.186;8.468;2023-08-01T15:09:06;0.60;;;0.30;;
11082;SDS011;5595;50.186;8.468;2023-08-01T15:11:34;0.40;;;0.40;;
11082;SDS011;5595;50.186;8.468;2023-08-01T15:14:04;0.28;;;0.25;;
11082;SDS011;5595;50.186;8.468;2023-08-01T15:16:31;0.38;;;0.20;;
11082;SDS011;5595;50.186;8.468;2023-08-01T15:18:59;0.30;;;0.30;;
11082;SDS011;5595;50.186;8.468;2023-08-01T15:21:28;0.20;;;0.20;;
11082;SDS011;5595;50.186;8.468;2023-08-01T15:23:54;1.10;;;0.73;;
11082;SDS011;5595;50.186;8.468;2023-08-01T15:26:21;0.22;;;0.20;;
11082;SDS011;5595;50.186;8.468;2023-08-01T15:28:48;0.32;;;0.20;;
11082;SDS011;5595;50.186;8.468;2023-08-01T15:31:15;0.30;;;0.20;;
11082;SDS011;5595;50.186;8.468;2023-08-01T15:33:42;0.20;;;0.20;;
11082;SDS011;5595;50.186;8.468;2023-08-01T15:36:11;1.13;;;0.22;;
11082;SDS011;5595;50.186;8.468;2023-08-01T15:38:39;0.77;;;0.20;;
11082;SDS011;5595;50.186;8.468;2023-08-01T15:41:06;1.45;;;0.20;;
11082;SDS011;5595;50.186;8.468;2023-08-01T15:43:34;0.43;;;0.20;;
11082;SDS011;5595;50.186;8.468;2023-08-01T15:46:02;0.40;;;0.20;;
11082;SDS011;5595;50.186;8.468;2023-08-01T15:48:32;0.20;;;0.20;;
11082;SDS011;5595;50.186;8.468;2023-08-01T15:51:00;0.10;;;0.10;;
11082;SDS011;5595;50.186;8.468;2023-08-01T15:54:49;0.65;;;0.30;;
11082;SDS011;5595;50.186;8.468;2023-08-01T15:56:53;0.10;;;0.10;;
11082;SDS011;5595;50.186;8.468;2023-08-01T15:59:19;0.75;;;0.20;;
11082;SDS011;5595;50.186;8.468;2023-08-01T16:01:46;0.20;;;0.20;;
11082;SDS011;5595;50.186;8.468;2023-08-01T16:04:13;0.50;;;0.30;;
11082;SDS011;5595;50.186;8.468;2023-08-01T16:06:40;0.45;;;0.25;;
11082;SDS011;5595;50.186;8.468;2023-08-01T16:09:07;0.20;;;0.20;;
11082;SDS011;5595;50.186;8.468;2023-08-01T16:11:36;0.50;;;0.30;;
11082;SDS011;5595;50.186;8.468;2023-08-01T16:14:04;3.22;;;0.20;;
11082;SDS011;5595;50.186;8.468;2023-08-01T16:16:33;0.20;;;0.20;;
11082;SDS011;5595;50.186;8.468;2023-08-01T16:19:00;1.15;;;0.30;;
11082;SDS011;5595;50.186;8.468;2023-08-01T16:21:35;0.88;;;0.20;;
11082;SDS011;5595;50.186;8.468;2023-08-01T16:24:02;2.20;;;0.20;;
11082;SDS011;5595;50.186;8.468;2023-08-01T16:26:29;0.20;;;0.20;;
11082;SDS011;5595;50.186;8.468;2023-08-01T16:28:56;0.52;;;0.20;;
11082;SDS011;5595;50.186;8.468;2023-08-01T16:31:24;0.35;;;0.20;;
11082;SDS011;5595;50.186;8.468;2023-08-01T16:33:51;1.55;;;0.20;;
11082;SDS011;5595;50.186;8.468;2023-08-01T16:36:18;0.88;;;0.20;;
11082;SDS011;5595;50.186;8.468;2023-08-01T16:38:45;0.32;;;0.28;;
11082;SDS011;5595;50.186;8.468;2023-08-01T16:41:12;0.45;;;0.30;;